Cardston, Canada
Current Conditions -  °F | °C
As of 9:00 PM on Sunday 21 Dec 2014 (Local Time) from CYQL Reporting Station
Broken Clouds Broken Clouds  
Wind Chill: 23°   Ceiling: 13000
Heat Index: 30°   Visibility: 15mi
Dew Point: 25°   Wind: 8mph
Humidity: 80%   Direction: 230°SW
Pressure: 29.64"   Gusts: NA
Location:  49.2°N, 113.3°W
Report Text: CYQL 220400Z 23007KT 15SM BKN130 M01/M04 A2964 RMK AC5 SLP067
Loading
Personal Weather Stations






























Interactive Weather Map New forecast layout! Learn more

10-Day Weather Forecast

Advertisements
Track Severe Weather on mobile